createdAt,value
2023-02-28T00:00:25.186Z,94.01
2023-02-28T00:05:50.969Z,95.24
2023-02-28T00:08:18.431Z,94.54
2023-02-28T00:10:45.989Z,94.06
2023-02-28T00:13:15.010Z,93.95
2023-02-28T00:18:41.390Z,95.31
2023-02-28T00:21:09.312Z,96.08
2023-02-28T00:23:36.973Z,96.46
2023-02-28T00:26:04.850Z,96.11
2023-02-28T00:31:16.449Z,94.26
2023-02-28T00:33:43.943Z,93.62
2023-02-28T00:36:12.870Z,93.34
2023-02-28T00:38:41.273Z,94.77
2023-02-28T00:44:07.046Z,93.44
2023-02-28T00:46:36.114Z,93.34
2023-02-28T00:49:03.602Z,92.15
2023-02-28T00:51:31.273Z,92.69
2023-02-28T00:53:58.803Z,91.37
2023-02-28T00:59:15.028Z,92.51
2023-02-28T01:01:44.290Z,92.22
2023-02-28T01:04:12.084Z,92.49
2023-02-28T01:06:39.572Z,91.90
2023-02-28T01:12:09.045Z,91.51
2023-02-28T01:14:36.861Z,91.48
2023-02-28T01:17:05.686Z,90.93
2023-02-28T01:19:33.119Z,91.18
2023-02-28T01:22:02.855Z,90.31
2023-02-28T01:24:30.426Z,90.93
2023-02-28T01:26:57.893Z,92.87
2023-02-28T01:29:25.335Z,95.73
2023-02-28T01:31:54.063Z,95.01
2023-02-28T01:34:22.848Z,93.96
2023-02-28T01:39:47.467Z,93.69
2023-02-28T01:45:21.505Z,93.77
2023-02-28T01:47:50.014Z,96.22
2023-02-28T01:50:21.135Z,96.30
2023-02-28T01:53:04.613Z,96.46
2023-02-28T01:55:32.961Z,95.11
2023-02-28T02:01:03.907Z,94.51
2023-02-28T02:03:32.000Z,94.81
2023-02-28T02:06:01.428Z,94.84
2023-02-28T02:08:30.400Z,94.00
2023-02-28T02:10:59.825Z,93.76
2023-02-28T02:13:36.505Z,93.74
2023-02-28T02:16:13.657Z,93.20
2023-02-28T02:18:45.356Z,92.74
2023-02-28T02:21:51.887Z,92.87
2023-02-28T02:24:31.506Z,92.62
2023-02-28T02:27:19.283Z,92.42
2023-02-28T02:33:33.087Z,93.16
2023-02-28T02:36:06.046Z,94.14
2023-02-28T02:38:35.651Z,93.62
2023-02-28T02:41:08.279Z,94.88
2023-02-28T02:43:38.843Z,94.27
2023-02-28T02:46:08.291Z,93.51
2023-02-28T02:48:38.452Z,94.13
2023-02-28T02:51:12.856Z,93.72
2023-02-28T02:56:47.234Z,94.94
2023-02-28T02:59:16.034Z,94.00
2023-02-28T03:01:43.664Z,93.73
2023-02-28T03:04:13.897Z,92.86
2023-02-28T03:06:43.496Z,92.60
2023-02-28T03:09:11.006Z,91.65
2023-02-28T03:11:41.684Z,92.63
2023-02-28T03:14:28.094Z,92.47
2023-02-28T03:20:08.342Z,91.66
2023-02-28T03:25:35.338Z,92.34
2023-02-28T03:28:06.936Z,92.11
2023-02-28T03:30:41.687Z,92.86
2023-02-28T03:33:13.555Z,93.72
2023-02-28T03:35:42.658Z,93.35
2023-02-28T03:41:16.264Z,93.20
2023-02-28T03:43:46.602Z,94.01
2023-02-28T03:46:17.704Z,94.01
2023-02-28T03:48:47.352Z,93.29
2023-02-28T03:51:18.174Z,92.99
2023-02-28T03:53:48.495Z,93.47
2023-02-28T03:56:19.353Z,93.28
2023-02-28T03:58:50.094Z,93.75
2023-02-28T04:01:19.980Z,92.56
2023-02-28T04:03:47.466Z,93.06
2023-02-28T04:06:17.821Z,91.87
2023-02-28T04:11:47.359Z,91.57
2023-02-28T04:14:15.226Z,91.93
2023-02-28T04:16:43.922Z,92.26
2023-02-28T04:19:13.203Z,91.93
2023-02-28T04:21:42.553Z,93.13
2023-02-28T04:24:42.529Z,94.57
2023-02-28T04:27:11.611Z,93.44
2023-02-28T04:29:39.099Z,93.62
2023-02-28T04:35:08.943Z,93.24
2023-02-28T04:37:37.733Z,94.77
2023-02-28T04:40:05.922Z,95.52
2023-02-28T04:42:36.661Z,94.11
2023-02-28T04:45:04.553Z,93.11
2023-02-28T04:47:32.120Z,93.09
2023-02-28T04:49:59.665Z,91.34
2023-02-28T04:52:29.093Z,92.00
2023-02-28T04:54:56.513Z,92.42
2023-02-28T04:57:23.980Z,93.82
2023-02-28T05:02:41.274Z,95.51
2023-02-28T05:05:08.956Z,96.36
2023-02-28T05:07:36.423Z,94.61
2023-02-28T05:10:04.688Z,93.87
2023-02-28T05:15:22.027Z,94.40
2023-02-28T05:17:50.842Z,94.57
2023-02-28T05:20:18.748Z,94.59
2023-02-28T05:22:46.260Z,94.10
2023-02-28T05:25:15.871Z,94.49
2023-02-28T05:27:43.371Z,94.82
2023-02-28T05:30:12.149Z,93.98
2023-02-28T05:32:40.110Z,94.29
2023-02-28T05:35:09.694Z,92.88
2023-02-28T05:37:37.496Z,93.14
2023-02-28T05:42:53.958Z,91.98
2023-02-28T05:45:21.382Z,91.93
2023-02-28T05:47:48.839Z,91.64
2023-02-28T05:50:17.858Z,91.38
2023-02-28T05:52:45.307Z,93.16
2023-02-28T05:58:14.902Z,95.78
2023-02-28T06:00:42.484Z,95.26
2023-02-28T06:03:09.937Z,95.34
2023-02-28T06:08:37.313Z,94.15
2023-02-28T06:11:05.035Z,92.74
2023-02-28T06:13:32.532Z,93.57
2023-02-28T06:16:02.351Z,93.54
2023-02-28T06:21:29.532Z,93.19
2023-02-28T06:23:59.146Z,92.93
2023-02-28T06:26:27.917Z,93.13
2023-02-28T06:28:55.574Z,92.51
2023-02-28T06:31:24.023Z,93.19
2023-02-28T06:33:51.911Z,93.37
2023-02-28T06:36:19.848Z,94.20
2023-02-28T06:39:11.262Z,94.02
2023-02-28T06:41:54.299Z,92.92
2023-02-28T06:44:23.507Z,93.33
2023-02-28T06:46:51.221Z,92.91
2023-02-28T06:49:19.973Z,92.73
2023-02-28T06:51:47.461Z,92.36
2023-02-28T06:54:15.370Z,91.33
2023-02-28T06:56:44.402Z,90.62
2023-02-28T06:59:11.905Z,90.25
2023-02-28T07:01:39.799Z,88.86
2023-02-28T07:04:07.570Z,89.58
2023-02-28T07:06:35.174Z,88.03
2023-02-28T07:09:02.646Z,87.55
2023-02-28T07:11:30.468Z,88.07
2023-02-28T07:16:56.767Z,88.50
2023-02-28T07:19:24.178Z,86.98
2023-02-28T07:21:51.647Z,86.89
2023-02-28T07:24:19.206Z,86.27
2023-02-28T07:29:34.972Z,86.67
2023-02-28T07:32:03.829Z,87.95
2023-02-28T07:34:31.343Z,88.65
2023-02-28T07:36:58.901Z,86.92
2023-02-28T07:42:14.927Z,84.39
2023-02-28T07:44:43.385Z,84.55
2023-02-28T07:47:12.608Z,82.03
2023-02-28T07:49:40.304Z,79.89
2023-02-28T07:52:08.855Z,77.72
2023-02-28T07:54:37.087Z,76.92
2023-02-28T07:59:46.073Z,71.36
2023-02-28T08:02:15.641Z,72.92
2023-02-28T08:04:43.506Z,68.16
2023-02-28T08:07:13.973Z,66.86
2023-02-28T08:09:41.445Z,68.22
2023-02-28T08:12:09.049Z,71.14
2023-02-28T08:14:37.989Z,70.68
2023-02-28T08:17:05.986Z,68.08
2023-02-28T08:19:34.773Z,71.34
2023-02-28T08:22:02.260Z,73.34
2023-02-28T08:24:29.952Z,73.13
2023-02-28T08:26:57.575Z,73.95
2023-02-28T08:29:25.175Z,74.61
2023-02-28T08:31:52.663Z,72.75
2023-02-28T08:34:20.191Z,72.75
2023-02-28T08:36:49.005Z,74.29
2023-02-28T08:39:16.442Z,75.06
2023-02-28T08:41:44.949Z,71.14
2023-02-28T08:44:12.386Z,71.89
2023-02-28T08:46:40.122Z,68.80
2023-02-28T08:49:07.977Z,69.08
2023-02-28T08:51:35.468Z,67.45
2023-02-28T08:54:04.286Z,67.59
2023-02-28T08:56:31.777Z,66.96
2023-02-28T08:58:59.366Z,65.36
2023-02-28T09:01:29.599Z,62.96
2023-02-28T09:03:58.393Z,63.31
2023-02-28T09:06:28.374Z,62.96
2023-02-28T09:08:59.243Z,62.47
2023-02-28T09:11:28.024Z,63.25
2023-02-28T09:13:56.398Z,62.43
2023-02-28T09:16:24.094Z,63.57
2023-02-28T09:18:51.572Z,64.26
2023-02-28T09:21:20.263Z,62.93
2023-02-28T09:23:49.761Z,64.05
2023-02-28T09:26:18.346Z,63.52
2023-02-28T09:28:47.238Z,62.95
2023-02-28T09:31:16.284Z,61.10
2023-02-28T09:33:43.878Z,59.75
2023-02-28T09:36:11.354Z,60.22
2023-02-28T09:38:38.908Z,59.91
2023-02-28T09:41:13.739Z,58.98
2023-02-28T09:50:19.989Z,60.52
2023-02-28T09:52:48.906Z,57.87
2023-02-28T09:55:23.429Z,63.29
2023-02-28T09:57:52.935Z,59.42
2023-02-28T10:00:23.389Z,59.85
2023-02-28T10:03:00.153Z,57.54
2023-02-28T10:05:32.455Z,57.09
2023-02-28T10:08:05.982Z,57.72
2023-02-28T10:10:39.284Z,57.86
2023-02-28T10:13:09.415Z,57.10
2023-02-28T10:15:37.264Z,57.25
2023-02-28T10:18:09.129Z,57.55
2023-02-28T10:20:40.953Z,58.79
2023-02-28T10:23:32.352Z,56.87
2023-02-28T10:26:01.926Z,60.93
2023-02-28T10:31:32.092Z,58.20
2023-02-28T10:33:59.550Z,57.88
2023-02-28T10:36:29.339Z,59.40
2023-02-28T10:38:57.033Z,59.02
2023-02-28T10:42:29.848Z,56.62
2023-02-28T10:45:08.476Z,56.22
2023-02-28T10:47:37.460Z,56.73
2023-02-28T10:50:05.715Z,60.91
2023-02-28T10:55:32.625Z,58.26
2023-02-28T10:58:01.407Z,57.33
2023-02-28T11:03:34.502Z,54.97
2023-02-28T11:06:07.496Z,53.17
2023-02-28T11:08:35.296Z,53.03
2023-02-28T11:11:06.785Z,54.13
2023-02-28T11:13:38.748Z,57.70
2023-02-28T11:16:08.766Z,59.06
2023-02-28T11:18:41.285Z,58.88
2023-02-28T11:21:09.702Z,57.96
2023-02-28T11:23:39.079Z,57.25
2023-02-28T11:26:10.454Z,53.72
2023-02-28T11:28:41.076Z,56.55
2023-02-28T11:31:20.326Z,55.12
2023-02-28T11:33:51.094Z,57.01
2023-02-28T11:36:21.624Z,53.69
2023-02-28T11:38:50.303Z,55.89
2023-02-28T11:41:27.818Z,58.94
2023-02-28T11:44:06.198Z,55.88
2023-02-28T11:46:37.934Z,55.58
2023-02-28T11:49:18.845Z,54.58
2023-02-28T11:51:52.909Z,51.56
2023-02-28T11:54:37.862Z,54.58
2023-02-28T11:57:15.719Z,56.99
2023-02-28T11:59:57.491Z,54.49
2023-02-28T12:02:28.814Z,56.86
2023-02-28T12:05:09.092Z,58.28
2023-02-28T12:07:49.676Z,56.78
2023-02-28T12:10:24.676Z,54.80
2023-02-28T12:13:01.620Z,57.75
2023-02-28T12:15:58.742Z,56.72
2023-02-28T12:18:39.534Z,56.09
2023-02-28T12:21:13.344Z,56.41
2023-02-28T12:24:02.333Z,53.34
2023-02-28T12:26:36.689Z,52.67
2023-02-28T12:29:11.388Z,54.87
2023-02-28T12:31:44.204Z,54.74
2023-02-28T12:34:15.423Z,53.34
2023-02-28T12:36:43.741Z,51.97
2023-02-28T12:39:15.218Z,51.03
2023-02-28T12:41:44.917Z,51.28
2023-02-28T12:44:15.609Z,49.63
2023-02-28T12:46:47.673Z,53.36
2023-02-28T12:49:18.878Z,56.02
2023-02-28T12:51:47.866Z,51.74
2023-02-28T12:54:22.937Z,53.17
2023-02-28T12:56:56.214Z,51.99
2023-02-28T12:59:27.832Z,53.68
2023-02-28T13:02:17.233Z,51.94
2023-02-28T13:04:51.233Z,52.60
2023-02-28T13:07:49.001Z,51.99
2023-02-28T13:10:19.563Z,51.24
2023-02-28T13:12:51.002Z,51.84
2023-02-28T13:15:22.270Z,54.78
2023-02-28T13:17:52.913Z,51.82
2023-02-28T13:20:22.487Z,51.84
2023-02-28T13:22:51.511Z,52.25
2023-02-28T13:25:52.949Z,53.72
2023-02-28T13:29:09.311Z,53.31
2023-02-28T13:32:14.539Z,51.14
2023-02-28T13:34:49.306Z,51.11
2023-02-28T13:37:35.411Z,50.83
2023-02-28T13:40:29.506Z,51.31
2023-02-28T13:42:56.951Z,51.11
2023-02-28T13:45:27.496Z,50.62
2023-02-28T13:47:57.254Z,51.46
2023-02-28T13:50:30.689Z,50.14
2023-02-28T13:53:08.096Z,51.51
2023-02-28T13:55:37.078Z,52.11
2023-02-28T13:58:27.932Z,55.98
2023-02-28T14:01:06.252Z,55.38
2023-02-28T14:03:41.446Z,54.13
2023-02-28T14:06:18.919Z,52.47
2023-02-28T14:08:54.999Z,51.16
2023-02-28T14:11:29.425Z,51.53
2023-02-28T14:13:56.886Z,51.21
2023-02-28T14:16:27.463Z,48.89
2023-02-28T14:18:58.624Z,51.34
2023-02-28T14:21:29.954Z,50.42
2023-02-28T14:24:33.004Z,51.00
2023-02-28T14:27:10.072Z,49.34
2023-02-28T14:29:52.195Z,49.25
2023-02-28T14:32:30.012Z,47.52
2023-02-28T14:35:04.077Z,49.58
2023-02-28T14:37:35.833Z,48.93
2023-02-28T14:40:05.462Z,47.44
2023-02-28T14:42:35.105Z,46.39
2023-02-28T14:45:03.010Z,46.80
2023-02-28T14:47:32.791Z,47.47
2023-02-28T14:50:00.482Z,47.44
2023-02-28T14:52:30.384Z,48.46
2023-02-28T14:55:01.237Z,48.45
2023-02-28T14:57:30.472Z,48.68
2023-02-28T15:00:11.589Z,48.43
2023-02-28T15:02:40.617Z,48.99
2023-02-28T15:05:28.370Z,51.13
2023-02-28T15:08:08.180Z,50.56
2023-02-28T15:10:37.052Z,50.88
2023-02-28T15:13:07.608Z,50.43
2023-02-28T15:15:51.605Z,50.52
2023-02-28T15:18:33.322Z,50.84
2023-02-28T15:21:04.700Z,50.16
2023-02-28T15:23:32.509Z,49.34
2023-02-28T15:26:01.809Z,49.43
2023-02-28T15:28:29.840Z,50.29
2023-02-28T15:31:00.639Z,49.79
2023-02-28T15:33:29.302Z,51.27
2023-02-28T15:36:08.970Z,52.52
2023-02-28T15:38:37.809Z,52.23
2023-02-28T15:41:09.060Z,54.08
2023-02-28T15:43:37.766Z,54.99
2023-02-28T15:46:07.250Z,54.96
2023-02-28T15:48:37.837Z,57.00
2023-02-28T15:51:08.502Z,57.01
2023-02-28T15:53:38.727Z,57.54
2023-02-28T15:56:23.432Z,56.44
2023-02-28T15:58:50.892Z,57.27
2023-02-28T16:01:22.968Z,57.88
2023-02-28T16:03:52.403Z,58.26
2023-02-28T16:06:37.523Z,57.72
2023-02-28T16:09:06.107Z,58.26
2023-02-28T16:11:36.885Z,58.49
2023-02-28T16:14:04.648Z,58.65
2023-02-28T16:16:33.128Z,58.43
2023-02-28T16:19:00.584Z,58.59
2023-02-28T16:21:28.733Z,58.63
2023-02-28T16:23:56.410Z,58.94
2023-02-28T16:26:25.202Z,57.81
2023-02-28T16:28:54.313Z,57.84
2023-02-28T16:31:22.191Z,57.82
2023-02-28T16:33:49.732Z,56.97
2023-02-28T16:36:18.970Z,57.00
2023-02-28T16:38:46.612Z,57.13
2023-02-28T16:41:20.851Z,57.30
2023-02-28T16:43:50.967Z,57.33
2023-02-28T16:49:17.951Z,58.60
2023-02-28T16:51:45.428Z,59.95
2023-02-28T16:54:12.877Z,60.68
2023-02-28T16:56:41.898Z,60.51
2023-02-28T17:01:58.830Z,61.27
2023-02-28T17:04:28.450Z,61.18
2023-02-28T17:06:55.898Z,60.93
2023-02-28T17:09:36.536Z,62.22
2023-02-28T17:12:19.287Z,63.90
2023-02-28T17:14:46.830Z,63.26
2023-02-28T17:20:15.776Z,66.29
2023-02-28T17:22:43.317Z,66.30
2023-02-28T17:25:11.923Z,65.64
2023-02-28T17:27:39.676Z,67.45
2023-02-28T17:33:05.675Z,66.73
2023-02-28T17:35:34.712Z,67.58
2023-02-28T17:38:02.177Z,67.86
2023-02-28T17:40:29.773Z,67.44
2023-02-28T17:45:45.636Z,68.62
2023-02-28T17:48:13.241Z,67.95
2023-02-28T17:50:42.427Z,69.84
2023-02-28T17:53:09.941Z,69.68
2023-02-28T17:58:39.636Z,70.35
2023-02-28T18:01:07.133Z,70.83
2023-02-28T18:03:34.553Z,70.78
2023-02-28T18:06:04.264Z,70.73
2023-02-28T18:11:21.271Z,70.99
2023-02-28T18:13:50.756Z,70.67
2023-02-28T18:16:18.953Z,71.98
2023-02-28T18:18:46.929Z,71.69
2023-02-28T18:24:14.446Z,72.48
2023-02-28T18:26:42.936Z,73.84
2023-02-28T18:29:17.288Z,75.20
2023-02-28T18:31:44.834Z,75.59
2023-02-28T18:37:00.609Z,75.55
2023-02-28T18:39:29.374Z,76.54
2023-02-28T18:41:56.821Z,76.43
2023-02-28T18:44:24.236Z,76.86
2023-02-28T18:49:50.646Z,77.37
2023-02-28T18:52:18.180Z,77.26
2023-02-28T18:54:46.949Z,77.48
2023-02-28T18:57:14.388Z,77.43
2023-02-28T19:02:19.141Z,79.10
2023-02-28T19:04:46.583Z,80.62
2023-02-28T19:07:14.649Z,79.92
2023-02-28T19:09:42.092Z,80.66
2023-02-28T19:12:10.924Z,81.09
2023-02-28T19:14:38.371Z,82.07
2023-02-28T19:19:56.634Z,82.61
2023-02-28T19:22:24.341Z,82.83
2023-02-28T19:24:52.010Z,84.86
2023-02-28T19:30:15.738Z,84.94
2023-02-28T19:32:43.718Z,84.44
2023-02-28T19:35:11.179Z,85.37
2023-02-28T19:37:39.771Z,86.63
2023-02-28T19:40:08.652Z,85.34
2023-02-28T19:42:36.535Z,85.23
2023-02-28T19:45:05.393Z,85.45
2023-02-28T19:47:34.269Z,84.30
2023-02-28T19:50:01.717Z,85.16
2023-02-28T19:52:29.248Z,87.12
2023-02-28T19:54:56.661Z,87.38
2023-02-28T19:57:24.115Z,86.75
2023-02-28T19:59:52.116Z,86.32
2023-02-28T20:02:21.657Z,85.80
2023-02-28T20:04:51.350Z,85.54
2023-02-28T20:07:20.586Z,85.61
2023-02-28T20:09:48.086Z,86.82
2023-02-28T20:12:24.167Z,88.27
2023-02-28T20:17:57.204Z,86.26
2023-02-28T20:20:26.246Z,86.44
2023-02-28T20:22:53.722Z,86.40
2023-02-28T20:25:21.287Z,87.20
2023-02-28T20:27:48.904Z,87.45
2023-02-28T20:30:16.528Z,87.99
2023-02-28T20:32:44.023Z,87.70
2023-02-28T20:35:12.110Z,88.38
2023-02-28T20:37:40.932Z,88.75
2023-02-28T20:40:09.987Z,90.35
2023-02-28T20:42:37.468Z,90.98
2023-02-28T20:48:07.644Z,90.21
2023-02-28T20:50:35.096Z,89.12
2023-02-28T20:53:03.863Z,88.61
2023-02-28T20:55:31.292Z,87.91
2023-02-28T20:57:58.795Z,88.74
2023-02-28T21:03:24.630Z,89.92
2023-02-28T21:05:52.059Z,90.71
2023-02-28T21:08:20.855Z,90.70
2023-02-28T21:10:48.310Z,90.81
2023-02-28T21:13:15.769Z,91.16
2023-02-28T21:15:43.204Z,91.10
2023-02-28T21:18:10.664Z,90.51
2023-02-28T21:20:38.100Z,90.16
2023-02-28T21:23:06.504Z,89.82
2023-02-28T21:25:35.309Z,88.85
2023-02-28T21:28:03.775Z,88.48
2023-02-28T21:30:31.378Z,88.94
2023-02-28T21:32:58.856Z,89.41
2023-02-28T21:35:26.370Z,89.37
2023-02-28T21:41:00.634Z,89.12
2023-02-28T21:43:28.075Z,89.14
2023-02-28T21:45:58.606Z,89.97
2023-02-28T21:48:26.100Z,90.63
2023-02-28T21:50:57.568Z,89.59
2023-02-28T21:53:27.976Z,90.40
2023-02-28T21:55:55.431Z,91.21
2023-02-28T21:58:24.616Z,91.52
2023-02-28T22:00:52.058Z,90.98
2023-02-28T22:03:19.528Z,90.83
2023-02-28T22:05:47.064Z,89.70
2023-02-28T22:08:14.519Z,89.80
2023-02-28T22:10:41.959Z,88.86
2023-02-28T22:13:09.406Z,88.92
2023-02-28T22:15:38.682Z,89.56
2023-02-28T22:18:06.459Z,89.44
2023-02-28T22:20:48.721Z,89.70
2023-02-28T22:23:16.145Z,91.05
2023-02-28T22:25:43.588Z,90.45
2023-02-28T22:28:11.011Z,90.61
2023-02-28T22:30:39.802Z,91.11
2023-02-28T22:33:07.222Z,91.91
2023-02-28T22:35:34.739Z,92.87
2023-02-28T22:38:02.175Z,93.26
2023-02-28T22:40:29.897Z,92.98
2023-02-28T22:42:57.371Z,92.70
2023-02-28T22:45:38.245Z,92.48
2023-02-28T22:48:08.203Z,92.46
2023-02-28T22:50:36.254Z,92.69
2023-02-28T22:53:03.689Z,92.49
2023-02-28T22:55:31.141Z,92.32
2023-02-28T23:00:48.923Z,90.21
2023-02-28T23:03:17.676Z,89.94
2023-02-28T23:05:45.273Z,89.74
2023-02-28T23:08:50.495Z,89.86
2023-02-28T23:11:20.363Z,89.85
2023-02-28T23:13:58.174Z,88.29
2023-02-28T23:16:27.184Z,89.14
2023-02-28T23:18:57.129Z,89.09
2023-02-28T23:21:24.891Z,91.26
2023-02-28T23:23:52.348Z,94.67
2023-02-28T23:26:19.847Z,93.14
2023-02-28T23:28:47.284Z,92.72
2023-02-28T23:34:26.052Z,93.95
2023-02-28T23:36:54.127Z,93.85
2023-02-28T23:42:11.934Z,93.12
2023-02-28T23:44:39.368Z,92.43
2023-02-28T23:47:07.199Z,91.27
2023-02-28T23:49:37.246Z,93.72
2023-02-28T23:52:05.476Z,94.49
2023-02-28T23:54:33.224Z,95.59
2023-02-28T23:57:00.698Z,94.11
2023-02-28T23:59:28.172Z,92.53
